Time,TemperatureF,DewpointF,PressureIn,WindDirection,WindDirectionDegrees,WindSpeedMPH,WindSpeedGustMPH,Humidity,HourlyPrecipIn,Conditions,Clouds,dailyrainin,SoftwareType,DateUTC
2013-04-06 00:02:00,45.2,31.3,29.89,East,101,5.0,16.0,58,0.00,,CLR,0.00,VWS V14.01,2013-04-06 05:02:00,
2013-04-06 00:07:00,45.3,31.8,29.89,SE,140,3.0,9.0,59,0.00,,CLR,0.00,VWS V14.01,2013-04-06 05:07:00,
2013-04-06 00:12:00,45.4,31.5,29.89,ESE,116,4.0,11.0,58,0.00,,CLR,0.00,VWS V14.01,2013-04-06 05:12:00,
2013-04-06 00:17:00,45.7,31.4,29.89,SE,134,5.0,11.0,57,0.00,,CLR,0.00,VWS V14.01,2013-04-06 05:17:00,
2013-04-06 00:22:00,45.6,31.3,29.89,ESE,117,5.0,12.0,57,0.00,,CLR,0.00,VWS V14.01,2013-04-06 05:22:00,
2013-04-06 00:27:00,45.6,31.3,29.89,SE,141,9.0,12.0,57,0.00,,CLR,0.00,VWS V14.01,2013-04-06 05:27:00,
2013-04-06 00:32:00,45.5,31.6,29.89,SSE,147,4.0,12.0,58,0.00,,CLR,0.00,VWS V14.01,2013-04-06 05:32:00,
2013-04-06 00:37:00,45.3,31.8,29.89,East,98,6.0,12.0,59,0.00,,CLR,0.00,VWS V14.01,2013-04-06 05:37:00,
2013-04-06 00:42:00,45.3,31.8,29.89,ESE,123,10.0,14.0,59,0.00,,CLR,0.00,VWS V14.01,2013-04-06 05:42:00,
2013-04-06 00:47:00,45.3,31.8,29.89,SE,130,2.0,14.0,59,0.00,,CLR,0.00,VWS V14.01,2013-04-06 05:47:00,
2013-04-06 00:52:00,45.3,31.8,29.89,SE,138,6.0,14.0,59,0.00,,CLR,0.00,VWS V14.01,2013-04-06 05:52:00,
2013-04-06 00:57:00,45.4,31.9,29.89,SE,138,4.0,14.0,59,0.00,,CLR,0.00,VWS V14.01,2013-04-06 05:57:00,
2013-04-06 01:02:00,45.4,31.9,29.88,South,190,5.0,14.0,59,0.00,,CLR,0.00,VWS V14.01,2013-04-06 06:02:00,
2013-04-06 01:08:00,45.4,31.9,29.88,SE,146,2.0,9.0,59,0.00,,CLR,0.00,VWS V14.01,2013-04-06 06:08:00,
2013-04-06 01:14:00,45.1,31.6,29.88,SE,139,2.0,9.0,59,0.00,,CLR,0.00,VWS V14.01,2013-04-06 06:14:00,
2013-04-06 01:19:00,44.9,31.9,29.88,ESE,110,7.0,12.0,60,0.00,,CLR,0.00,VWS V14.01,2013-04-06 06:19:00,
2013-04-06 01:24:00,44.7,31.7,29.88,ESE,106,7.0,12.0,60,0.00,,CLR,0.00,VWS V14.01,2013-04-06 06:24:00,
2013-04-06 01:29:00,44.7,31.7,29.88,SSE,154,4.0,12.0,60,0.00,,CLR,0.00,VWS V14.01,2013-04-06 06:29:00,
2013-04-06 01:34:00,44.7,31.7,29.88,SE,140,9.0,12.0,60,0.00,,CLR,0.00,VWS V14.01,2013-04-06 06:34:00,
2013-04-06 01:39:00,44.9,31.9,29.88,ESE,105,5.0,13.0,60,0.00,,CLR,0.00,VWS V14.01,2013-04-06 06:39:00,
2013-04-06 01:44:00,45.0,31.5,29.88,SE,145,4.0,13.0,59,0.00,,CLR,0.00,VWS V14.01,2013-04-06 06:44:00,
2013-04-06 01:49:00,45.1,31.6,29.88,ESE,123,4.0,13.0,59,0.00,,CLR,0.00,VWS V14.01,2013-04-06 06:49:00,
2013-04-06 01:54:00,45.2,31.7,29.88,SSE,148,7.0,14.0,59,0.00,,CLR,0.00,VWS V14.01,2013-04-06 06:54:00,
2013-04-06 01:59:00,45.1,31.6,29.88,ESE,123,2.0,14.0,59,0.00,,CLR,0.00,VWS V14.01,2013-04-06 06:59:00,
2013-04-06 02:04:00,45.1,31.6,29.87,NE,42,4.0,10.0,59,0.00,,CLR,0.00,VWS V14.01,2013-04-06 07:04:00,
2013-04-06 02:09:00,45.1,31.6,29.87,South,184,8.0,11.0,59,0.00,,CLR,0.00,VWS V14.01,2013-04-06 07:09:00,
2013-04-06 02:14:00,45.1,31.6,29.87,SE,134,3.0,12.0,59,0.00,,CLR,0.00,VWS V14.01,2013-04-06 07:14:00,
2013-04-06 02:19:00,45.0,31.5,29.87,SSE,152,7.0,14.0,59,0.00,,CLR,0.00,VWS V14.01,2013-04-06 07:19:00,
2013-04-06 02:24:00,45.0,31.5,29.86,East,92,2.0,14.0,59,0.00,,CLR,0.00,VWS V14.01,2013-04-06 07:24:00,
2013-04-06 02:29:00,45.0,31.5,29.86,ESE,113,4.0,16.0,59,0.00,,CLR,0.00,VWS V14.01,2013-04-06 07:29:00,
2013-04-06 02:35:00,44.9,31.5,29.86,SSE,150,6.0,16.0,59,0.00,,CLR,0.00,VWS V14.01,2013-04-06 07:35:00,
2013-04-06 02:40:00,44.7,31.3,29.86,SE,142,4.0,16.0,59,0.00,,CLR,0.00,VWS V14.01,2013-04-06 07:40:00,
2013-04-06 02:45:00,44.7,31.3,29.85,ESE,115,2.0,16.0,59,0.00,,CLR,0.00,VWS V14.01,2013-04-06 07:45:00,
2013-04-06 02:50:00,44.3,31.3,29.85,SE,140,4.0,16.0,60,0.00,,CLR,0.00,VWS V14.01,2013-04-06 07:50:00,
2013-04-06 02:55:00,44.1,31.1,29.85,SSE,161,1.0,16.0,60,0.00,,CLR,0.00,VWS V14.01,2013-04-06 07:55:00,
2013-04-06 03:00:00,44.0,31.4,29.85,SE,130,4.0,16.0,61,0.00,,CLR,0.00,VWS V14.01,2013-04-06 08:00:00,
2013-04-06 03:05:00,43.8,31.2,29.84,ESE,115,9.0,11.0,61,0.00,,CLR,0.00,VWS V14.01,2013-04-06 08:05:00,
2013-04-06 03:10:00,43.8,30.8,29.84,ESE,113,13.0,15.0,60,0.00,,CLR,0.00,VWS V14.01,2013-04-06 08:10:00,
2013-04-06 03:15:00,44.1,30.7,29.84,SE,126,11.0,15.0,59,0.00,,CLR,0.00,VWS V14.01,2013-04-06 08:15:00,
2013-04-06 03:20:00,44.1,30.3,29.84,SE,138,8.0,15.0,58,0.00,,CLR,0.00,VWS V14.01,2013-04-06 08:20:00,
2013-04-06 03:25:00,43.9,30.5,29.84,East,83,11.0,15.0,59,0.00,,CLR,0.00,VWS V14.01,2013-04-06 08:25:00,
2013-04-06 03:30:00,43.9,30.1,29.83,SSE,151,6.0,15.0,58,0.00,,CLR,0.00,VWS V14.01,2013-04-06 08:30:00,
2013-04-06 03:35:00,43.8,30.4,29.83,ESE,110,7.0,15.0,59,0.00,,CLR,0.00,VWS V14.01,2013-04-06 08:35:00,
2013-04-06 03:40:00,43.7,30.3,29.82,SE,124,11.0,17.0,59,0.00,,CLR,0.00,VWS V14.01,2013-04-06 08:40:00,
2013-04-06 03:45:00,43.7,29.9,29.82,SE,144,1.0,17.0,58,0.00,,CLR,0.00,VWS V14.01,2013-04-06 08:45:00,
2013-04-06 03:50:00,43.8,30.0,29.82,SE,133,3.0,19.0,58,0.00,,CLR,0.00,VWS V14.01,2013-04-06 08:50:00,
2013-04-06 03:55:00,43.8,30.0,29.81,SE,130,14.0,19.0,58,0.00,,CLR,0.00,VWS V14.01,2013-04-06 08:55:00,
2013-04-06 04:00:00,43.7,29.9,29.81,SE,139,7.0,19.0,58,0.00,,CLR,0.00,VWS V14.01,2013-04-06 09:00:00,
2013-04-06 04:05:00,43.8,30.0,29.80,SE,143,8.0,15.0,58,0.00,,CLR,0.00,VWS V14.01,2013-04-06 09:05:00,
2013-04-06 04:10:00,43.8,30.0,29.80,ESE,115,8.0,15.0,58,0.00,,CLR,0.00,VWS V14.01,2013-04-06 09:10:00,
2013-04-06 04:15:00,43.8,30.0,29.79,SSE,167,8.0,18.0,58,0.00,,CLR,0.00,VWS V14.01,2013-04-06 09:15:00,
2013-04-06 04:20:00,43.7,29.9,29.79,SE,134,10.0,18.0,58,0.00,,CLR,0.00,VWS V14.01,2013-04-06 09:20:00,
2013-04-06 04:25:00,43.7,29.9,29.79,ESE,123,9.0,23.0,58,0.00,,CLR,0.00,VWS V14.01,2013-04-06 09:25:00,
2013-04-06 04:30:00,43.8,30.4,29.78,SE,139,12.0,23.0,59,0.00,,CLR,0.00,VWS V14.01,2013-04-06 09:30:00,
2013-04-06 04:35:00,43.2,30.7,29.79,SE,135,16.0,23.0,61,0.00,,CLR,0.00,VWS V14.01,2013-04-06 09:35:00,
2013-04-06 04:40:00,42.7,31.4,29.79,SE,143,5.0,23.0,64,0.00,,CLR,0.00,VWS V14.01,2013-04-06 09:40:00,
2013-04-06 04:45:00,42.3,31.4,29.79,South,169,6.0,23.0,65,0.00,,CLR,0.00,VWS V14.01,2013-04-06 09:45:00,
2013-04-06 04:50:00,42.3,31.8,29.79,SE,129,11.0,23.0,66,0.00,,CLR,0.00,VWS V14.01,2013-04-06 09:50:00,
2013-04-06 04:55:00,42.7,31.8,29.79,ESE,112,9.0,23.0,65,0.01,,CLR,0.01,VWS V14.01,2013-04-06 09:55:00,
2013-04-06 05:00:00,42.9,31.6,29.77,SE,146,7.0,23.0,64,0.01,,CLR,0.01,VWS V14.01,2013-04-06 10:00:00,
2013-04-06 05:05:00,42.9,31.6,29.77,SE,141,9.0,13.0,64,0.01,,CLR,0.01,VWS V14.01,2013-04-06 10:05:00,
2013-04-06 05:11:00,43.1,31.4,29.77,ESE,119,9.0,14.0,63,0.01,,CLR,0.01,VWS V14.01,2013-04-06 10:11:00,
2013-04-06 05:16:00,43.2,31.5,29.76,SSE,149,7.0,14.0,63,0.01,,CLR,0.01,VWS V14.01,2013-04-06 10:16:00,
2013-04-06 05:21:00,43.3,30.8,29.76,SSE,163,7.0,21.0,61,0.01,,CLR,0.01,VWS V14.01,2013-04-06 10:21:00,
2013-04-06 05:26:00,43.3,31.2,29.76,SE,144,6.0,21.0,62,0.01,,CLR,0.01,VWS V14.01,2013-04-06 10:26:00,
2013-04-06 05:31:00,43.3,31.2,29.76,South,169,5.0,21.0,62,0.01,,CLR,0.01,VWS V14.01,2013-04-06 10:31:00,
2013-04-06 05:36:00,43.2,31.1,29.76,SSE,161,7.0,21.0,62,0.01,,CLR,0.01,VWS V14.01,2013-04-06 10:36:00,
2013-04-06 05:41:00,42.9,31.2,29.75,South,177,8.0,21.0,63,0.01,,CLR,0.01,VWS V14.01,2013-04-06 10:41:00,
2013-04-06 05:46:00,42.8,31.5,29.75,SE,144,9.0,21.0,64,0.01,,CLR,0.01,VWS V14.01,2013-04-06 10:46:00,
2013-04-06 05:51:00,42.7,31.4,29.75,SE,144,6.0,21.0,64,0.01,,CLR,0.01,VWS V14.01,2013-04-06 10:51:00,
2013-04-06 05:56:00,42.7,31.4,29.75,SSE,157,10.0,21.0,64,0.01,,CLR,0.01,VWS V14.01,2013-04-06 10:56:00,
2013-04-06 06:01:00,42.7,31.8,29.74,SE,145,9.0,21.0,65,0.01,,CLR,0.01,VWS V14.01,2013-04-06 11:01:00,
2013-04-06 06:06:00,42.5,31.6,29.74,SSE,151,11.0,11.0,65,0.00,,CLR,0.01,VWS V14.01,2013-04-06 11:06:00,
2013-04-06 06:12:00,42.5,32.0,29.74,SE,140,5.0,11.0,66,0.00,,CLR,0.01,VWS V14.01,2013-04-06 11:12:00,
2013-04-06 06:17:00,42.5,32.3,29.74,SE,132,9.0,12.0,67,0.00,,CLR,0.01,VWS V14.01,2013-04-06 11:17:00,
2013-04-06 06:22:00,42.7,32.2,29.73,SSE,152,12.0,17.0,66,0.00,,CLR,0.01,VWS V14.01,2013-04-06 11:22:00,
2013-04-06 06:27:00,42.8,32.2,29.74,SE,134,6.0,17.0,66,0.00,,CLR,0.01,VWS V14.01,2013-04-06 11:27:00,
2013-04-06 06:32:00,42.9,32.7,29.74,South,183,1.0,17.0,67,0.00,,CLR,0.01,VWS V14.01,2013-04-06 11:32:00,
2013-04-06 06:33:00,43.0,32.4,29.73,SE,146,3.0,17.0,66,0.00,,CLR,0.01,VWS V14.01,2013-04-06 11:33:00,
2013-04-06 06:38:00,43.0,32.8,29.74,SE,145,2.0,17.0,67,0.00,,CLR,0.01,VWS V14.01,2013-04-06 11:38:00,
2013-04-06 06:44:00,43.1,32.9,29.73,SE,146,5.0,17.0,67,0.00,,CLR,0.01,VWS V14.01,2013-04-06 11:44:00,
2013-04-06 06:49:00,42.9,33.1,29.73,SSE,148,6.0,17.0,68,0.00,,CLR,0.01,VWS V14.01,2013-04-06 11:49:00,
2013-04-06 06:54:00,43.1,33.3,29.73,SSW,212,5.0,17.0,68,0.00,,CLR,0.01,VWS V14.01,2013-04-06 11:54:00,
2013-04-06 06:59:00,43.3,33.5,29.74,SSE,159,4.0,17.0,68,0.00,,CLR,0.01,VWS V14.01,2013-04-06 11:59:00,
2013-04-06 07:04:00,43.4,33.9,29.73,SSE,159,6.0,9.0,69,0.00,,CLR,0.01,VWS V14.01,2013-04-06 12:04:00,
2013-04-06 07:09:00,43.5,34.0,29.73,SE,126,4.0,11.0,69,0.00,,CLR,0.01,VWS V14.01,2013-04-06 12:09:00,
2013-04-06 07:14:00,43.7,34.2,29.73,SE,141,5.0,11.0,69,0.00,,CLR,0.01,VWS V14.01,2013-04-06 12:14:00,
2013-04-06 07:19:00,43.8,34.3,29.73,SE,132,4.0,11.0,69,0.00,,CLR,0.01,VWS V14.01,2013-04-06 12:19:00,
2013-04-06 07:25:00,44.0,34.5,29.73,SSE,147,1.0,11.0,69,0.00,,CLR,0.01,VWS V14.01,2013-04-06 12:25:00,
2013-04-06 07:30:00,44.3,34.4,29.72,South,173,4.0,11.0,68,0.00,,CLR,0.01,VWS V14.01,2013-04-06 12:30:00,
2013-04-06 07:35:00,44.2,34.7,29.72,South,175,4.0,11.0,69,0.00,,CLR,0.01,VWS V14.01,2013-04-06 12:35:00,
2013-04-06 07:40:00,44.4,34.9,29.72,SSE,148,5.0,12.0,69,0.00,,CLR,0.01,VWS V14.01,2013-04-06 12:40:00,
2013-04-06 07:45:00,44.5,35.0,29.71,SE,141,7.0,12.0,69,0.00,,CLR,0.01,VWS V14.01,2013-04-06 12:45:00,
2013-04-06 07:50:00,44.6,35.1,29.72,SE,130,4.0,12.0,69,0.00,,CLR,0.01,VWS V14.01,2013-04-06 12:50:00,
2013-04-06 07:55:00,44.8,35.3,29.71,SSE,162,4.0,12.0,69,0.00,,CLR,0.01,VWS V14.01,2013-04-06 12:55:00,
2013-04-06 08:00:00,45.1,35.2,29.71,SSE,167,2.0,12.0,68,0.00,,CLR,0.01,VWS V14.01,2013-04-06 13:00:00,
2013-04-06 08:05:00,45.4,35.5,29.71,SSE,165,4.0,10.0,68,0.00,,CLR,0.01,VWS V14.01,2013-04-06 13:05:00,
2013-04-06 08:10:00,45.5,35.6,29.71,SSE,168,0.0,14.0,68,0.00,,CLR,0.01,VWS V14.01,2013-04-06 13:10:00,
2013-04-06 08:15:00,45.5,35.6,29.71,SE,133,3.0,14.0,68,0.00,,CLR,0.01,VWS V14.01,2013-04-06 13:15:00,
2013-04-06 08:20:00,45.8,35.8,29.71,ESE,113,4.0,17.0,68,0.00,,CLR,0.01,VWS V14.01,2013-04-06 13:20:00,
2013-04-06 08:25:00,46.0,36.0,29.70,SE,140,6.0,17.0,68,0.00,,CLR,0.01,VWS V14.01,2013-04-06 13:25:00,
2013-04-06 08:30:00,46.1,36.1,29.69,SE,141,2.0,17.0,68,0.00,,CLR,0.01,VWS V14.01,2013-04-06 13:30:00,
2013-04-06 08:35:00,46.5,36.5,29.69,South,179,4.0,17.0,68,0.00,,CLR,0.01,VWS V14.01,2013-04-06 13:35:00,
2013-04-06 08:41:00,46.8,36.4,29.68,SSE,150,9.0,17.0,67,0.00,,CLR,0.01,VWS V14.01,2013-04-06 13:41:00,
2013-04-06 08:46:00,47.3,36.9,29.68,SE,145,9.0,17.0,67,0.00,,CLR,0.01,VWS V14.01,2013-04-06 13:46:00,
2013-04-06 08:51:00,47.7,37.3,29.68,South,174,8.0,17.0,67,0.00,,CLR,0.01,VWS V14.01,2013-04-06 13:51:00,
2013-04-06 08:56:00,48.1,37.7,29.68,SSE,148,5.0,17.0,67,0.00,,CLR,0.01,VWS V14.01,2013-04-06 13:56:00,
2013-04-06 09:01:00,48.4,37.6,29.67,SE,134,7.0,17.0,66,0.00,,CLR,0.01,VWS V14.01,2013-04-06 14:01:00,
2013-04-06 09:06:00,48.5,37.7,29.67,SE,142,6.0,12.0,66,0.00,,CLR,0.01,VWS V14.01,2013-04-06 14:06:00,
2013-04-06 09:11:00,48.6,38.2,29.67,SSE,160,4.0,13.0,67,0.00,,CLR,0.01,VWS V14.01,2013-04-06 14:11:00,
2013-04-06 09:16:00,48.9,38.4,29.66,SSE,153,6.0,14.0,67,0.00,,CLR,0.01,VWS V14.01,2013-04-06 14:16:00,
2013-04-06 09:21:00,49.3,38.8,29.66,SSE,153,4.0,14.0,67,0.00,,CLR,0.01,VWS V14.01,2013-04-06 14:21:00,
2013-04-06 09:26:00,50.6,40.4,29.65,SE,137,8.0,14.0,68,0.00,,CLR,0.01,VWS V14.01,2013-04-06 14:26:00,
2013-04-06 09:32:00,51.7,40.3,29.65,SE,146,3.0,17.0,65,0.00,,CLR,0.01,VWS V14.01,2013-04-06 14:32:00,
2013-04-06 09:37:00,52.5,41.1,29.65,SSE,158,0.0,17.0,65,0.00,,CLR,0.01,VWS V14.01,2013-04-06 14:37:00,
2013-04-06 09:42:00,53.4,41.1,29.64,SSE,150,8.0,17.0,63,0.00,,CLR,0.01,VWS V14.01,2013-04-06 14:42:00,
2013-04-06 09:47:00,54.1,41.4,29.64,SE,135,7.0,18.0,62,0.00,,CLR,0.01,VWS V14.01,2013-04-06 14:47:00,
2013-04-06 09:52:00,54.4,41.7,29.64,SSE,151,6.0,18.0,62,0.00,,CLR,0.01,VWS V14.01,2013-04-06 14:52:00,
2013-04-06 09:57:00,55.3,42.5,29.63,SSE,151,8.0,18.0,62,0.00,,CLR,0.01,VWS V14.01,2013-04-06 14:57:00,
2013-04-06 10:02:00,56.0,42.3,29.63,SSW,195,13.0,18.0,60,0.00,,CLR,0.01,VWS V14.01,2013-04-06 15:02:00,
2013-04-06 10:07:00,56.3,42.6,29.63,SSE,148,6.0,15.0,60,0.00,,CLR,0.01,VWS V14.01,2013-04-06 15:07:00,
2013-04-06 10:12:00,56.8,43.1,29.63,SSE,152,5.0,15.0,60,0.00,,CLR,0.01,VWS V14.01,2013-04-06 15:12:00,
2013-04-06 10:17:00,57.6,43.0,29.63,SSW,194,5.0,22.0,58,0.00,,CLR,0.01,VWS V14.01,2013-04-06 15:17:00,
2013-04-06 10:22:00,58.4,43.7,29.63,SSE,157,9.0,22.0,58,0.00,,CLR,0.01,VWS V14.01,2013-04-06 15:22:00,
2013-04-06 10:27:00,58.7,44.0,29.63,SSW,211,8.0,22.0,58,0.00,,CLR,0.01,VWS V14.01,2013-04-06 15:27:00,
2013-04-06 10:32:00,59.0,43.8,29.62,SE,142,6.0,22.0,57,0.00,,CLR,0.01,VWS V14.01,2013-04-06 15:32:00,
2013-04-06 10:37:00,59.0,43.3,29.62,South,187,6.0,22.0,56,0.00,,CLR,0.01,VWS V14.01,2013-04-06 15:37:00,
2013-04-06 10:42:00,59.2,44.0,29.62,SSE,166,5.0,22.0,57,0.00,,CLR,0.01,VWS V14.01,2013-04-06 15:42:00,
2013-04-06 10:47:00,59.5,43.8,29.62,SSE,166,3.0,22.0,56,0.00,,CLR,0.01,VWS V14.01,2013-04-06 15:47:00,
2013-04-06 10:52:00,59.2,43.5,29.61,SE,138,10.0,22.0,56,0.00,,CLR,0.01,VWS V14.01,2013-04-06 15:52:00,
2013-04-06 10:57:00,59.1,43.9,29.61,South,178,4.0,22.0,57,0.00,,CLR,0.01,VWS V14.01,2013-04-06 15:57:00,
2013-04-06 11:02:00,59.1,44.3,29.61,South,174,4.0,22.0,58,0.00,,CLR,0.01,VWS V14.01,2013-04-06 16:02:00,
2013-04-06 11:07:00,59.4,44.6,29.61,South,182,2.0,10.0,58,0.00,,CLR,0.01,VWS V14.01,2013-04-06 16:07:00,
2013-04-06 11:12:00,59.4,44.2,29.61,SSW,194,3.0,13.0,57,0.00,,CLR,0.01,VWS V14.01,2013-04-06 16:12:00,
2013-04-06 11:18:00,59.5,44.3,29.60,South,170,6.0,15.0,57,0.00,,CLR,0.01,VWS V14.01,2013-04-06 16:18:00,
2013-04-06 11:23:00,59.6,44.8,29.60,SSW,198,4.0,15.0,58,0.00,,CLR,0.01,VWS V14.01,2013-04-06 16:23:00,
2013-04-06 11:28:00,59.6,45.3,29.60,SSW,203,7.0,15.0,59,0.00,,CLR,0.01,VWS V14.01,2013-04-06 16:28:00,
2013-04-06 11:33:00,59.8,45.5,29.60,SW,229,6.0,15.0,59,0.00,,CLR,0.01,VWS V14.01,2013-04-06 16:33:00,
2013-04-06 11:38:00,60.2,45.4,29.60,South,173,11.0,18.0,58,0.00,,CLR,0.01,VWS V14.01,2013-04-06 16:38:00,
2013-04-06 11:43:00,60.3,45.0,29.59,SSW,201,7.0,18.0,57,0.00,,CLR,0.01,VWS V14.01,2013-04-06 16:43:00,
2013-04-06 11:48:00,60.4,45.6,29.59,SW,214,7.0,18.0,58,0.00,,CLR,0.01,VWS V14.01,2013-04-06 16:48:00,
2013-04-06 11:53:00,60.7,45.4,29.59,SSW,204,20.0,21.0,57,0.00,,CLR,0.01,VWS V14.01,2013-04-06 16:53:00,
2013-04-06 11:58:00,60.7,45.8,29.59,SSW,209,16.0,21.0,58,0.00,,CLR,0.01,VWS V14.01,2013-04-06 16:58:00,
2013-04-06 12:03:00,60.9,46.0,29.59,SSW,203,7.0,21.0,58,0.00,,CLR,0.01,VWS V14.01,2013-04-06 17:03:00,
2013-04-06 12:08:00,61.1,45.8,29.58,SSW,203,11.0,16.0,57,0.00,,CLR,0.01,VWS V14.01,2013-04-06 17:08:00,
2013-04-06 12:13:00,60.9,46.0,29.58,SSW,213,11.0,20.0,58,0.00,,CLR,0.01,VWS V14.01,2013-04-06 17:13:00,
2013-04-06 12:18:00,61.0,45.7,29.58,South,182,10.0,20.0,57,0.00,,CLR,0.01,VWS V14.01,2013-04-06 17:18:00,
2013-04-06 12:23:00,60.8,46.0,29.58,SSW,193,2.0,20.0,58,0.00,,CLR,0.01,VWS V14.01,2013-04-06 17:23:00,
2013-04-06 12:28:00,60.9,46.0,29.58,SSE,165,8.0,20.0,58,0.00,,CLR,0.01,VWS V14.01,2013-04-06 17:28:00,
2013-04-06 12:33:00,60.5,45.7,29.58,SSW,198,7.0,20.0,58,0.00,,CLR,0.01,VWS V14.01,2013-04-06 17:33:00,
2013-04-06 12:38:00,59.9,45.5,29.58,SW,215,15.0,20.0,59,0.00,,CLR,0.01,VWS V14.01,2013-04-06 17:38:00,
2013-04-06 12:43:00,59.6,45.7,29.58,South,180,13.0,20.0,60,0.00,,CLR,0.01,VWS V14.01,2013-04-06 17:43:00,
2013-04-06 12:48:00,59.4,45.5,29.58,SW,223,12.0,20.0,60,0.00,,CLR,0.01,VWS V14.01,2013-04-06 17:48:00,
2013-04-06 12:53:00,59.4,46.0,29.58,SSW,212,7.0,20.0,61,0.00,,CLR,0.01,VWS V14.01,2013-04-06 17:53:00,
2013-04-06 12:58:00,59.6,46.2,29.58,SSW,202,7.0,20.0,61,0.00,,CLR,0.01,VWS V14.01,2013-04-06 17:58:00,
2013-04-06 13:04:00,59.7,46.2,29.58,South,179,6.0,9.0,61,0.00,,CLR,0.01,VWS V14.01,2013-04-06 18:04:00,
2013-04-06 13:09:00,59.7,46.2,29.58,SW,221,8.0,10.0,61,0.00,,CLR,0.01,VWS V14.01,2013-04-06 18:09:00,
2013-04-06 13:14:00,59.9,46.4,29.57,SSW,202,7.0,13.0,61,0.00,,CLR,0.01,VWS V14.01,2013-04-06 18:14:00,
2013-04-06 13:19:00,60.7,46.8,29.57,SSW,211,7.0,16.0,60,0.00,,CLR,0.01,VWS V14.01,2013-04-06 18:19:00,
2013-04-06 13:24:00,61.0,47.0,29.57,SW,219,10.0,17.0,60,0.00,,CLR,0.01,VWS V14.01,2013-04-06 18:24:00,
2013-04-06 13:29:00,61.1,47.1,29.57,SSW,213,13.0,17.0,60,0.00,,CLR,0.01,VWS V14.01,2013-04-06 18:29:00,
2013-04-06 13:34:00,61.0,47.0,29.57,SW,223,7.0,18.0,60,0.00,,CLR,0.01,VWS V14.01,2013-04-06 18:34:00,
2013-04-06 13:39:00,61.2,47.2,29.57,SW,219,17.0,18.0,60,0.00,,CLR,0.01,VWS V14.01,2013-04-06 18:39:00,
2013-04-06 13:44:00,61.2,47.2,29.57,SSW,203,14.0,18.0,60,0.00,,CLR,0.01,VWS V14.01,2013-04-06 18:44:00,
2013-04-06 13:49:00,61.1,47.1,29.56,SSW,206,9.0,21.0,60,0.00,,CLR,0.01,VWS V14.01,2013-04-06 18:49:00,
2013-04-06 13:54:00,61.0,47.5,29.56,SSW,207,10.0,21.0,61,0.00,,CLR,0.01,VWS V14.01,2013-04-06 18:54:00,
2013-04-06 13:59:00,60.9,47.4,29.56,SW,221,5.0,21.0,61,0.00,,CLR,0.01,VWS V14.01,2013-04-06 18:59:00,
2013-04-06 14:05:00,60.9,47.4,29.56,SW,232,9.0,10.0,61,0.00,,CLR,0.01,VWS V14.01,2013-04-06 19:05:00,
2013-04-06 14:10:00,61.0,47.5,29.56,SSW,209,13.0,13.0,61,0.00,,CLR,0.01,VWS V14.01,2013-04-06 19:10:00,
2013-04-06 14:15:00,61.2,47.7,29.56,WSW,244,7.0,13.0,61,0.00,,CLR,0.01,VWS V14.01,2013-04-06 19:15:00,
2013-04-06 14:20:00,61.5,47.9,29.55,SW,215,14.0,14.0,61,0.00,,CLR,0.01,VWS V14.01,2013-04-06 19:20:00,
2013-04-06 14:25:00,61.8,48.2,29.55,SW,225,10.0,14.0,61,0.00,,CLR,0.01,VWS V14.01,2013-04-06 19:25:00,
2013-04-06 14:30:00,62.0,48.4,29.55,SW,227,11.0,14.0,61,0.00,,CLR,0.01,VWS V14.01,2013-04-06 19:30:00,
2013-04-06 14:35:00,61.8,48.2,29.54,SW,222,10.0,15.0,61,0.00,,CLR,0.01,VWS V14.01,2013-04-06 19:35:00,
2013-04-06 14:40:00,61.7,48.1,29.54,SW,232,12.0,15.0,61,0.00,,CLR,0.01,VWS V14.01,2013-04-06 19:40:00,
2013-04-06 14:45:00,61.3,47.8,29.54,SW,222,13.0,15.0,61,0.00,,CLR,0.01,VWS V14.01,2013-04-06 19:45:00,
2013-04-06 14:50:00,61.2,48.1,29.54,SW,223,8.0,15.0,62,0.00,,CLR,0.01,VWS V14.01,2013-04-06 19:50:00,
2013-04-06 14:55:00,61.0,48.3,29.54,SW,217,10.0,15.0,63,0.00,,CLR,0.01,VWS V14.01,2013-04-06 19:55:00,
2013-04-06 15:00:00,60.7,48.0,29.54,SSW,212,8.0,15.0,63,0.00,,CLR,0.01,VWS V14.01,2013-04-06 20:00:00,
2013-04-06 15:05:00,60.4,48.2,29.54,SW,223,8.0,9.0,64,0.00,,CLR,0.01,VWS V14.01,2013-04-06 20:05:00,
2013-04-06 15:10:00,60.3,48.1,29.54,SW,221,8.0,9.0,64,0.00,,CLR,0.01,VWS V14.01,2013-04-06 20:10:00,
2013-04-06 15:15:00,60.3,48.1,29.54,SW,223,8.0,10.0,64,0.00,,CLR,0.01,VWS V14.01,2013-04-06 20:15:00,
2013-04-06 15:20:00,60.1,47.9,29.54,SSW,213,5.0,10.0,64,0.00,,CLR,0.01,VWS V14.01,2013-04-06 20:20:00,
2013-04-06 15:25:00,60.0,48.2,29.53,SW,219,6.0,10.0,65,0.00,,CLR,0.01,VWS V14.01,2013-04-06 20:25:00,
2013-04-06 15:30:00,59.9,48.1,29.53,SSW,209,7.0,10.0,65,0.00,,CLR,0.01,VWS V14.01,2013-04-06 20:30:00,
2013-04-06 15:35:00,59.7,48.3,29.53,SW,220,5.0,10.0,66,0.00,,CLR,0.01,VWS V14.01,2013-04-06 20:35:00,
2013-04-06 15:40:00,59.4,48.5,29.53,SW,215,5.0,10.0,67,0.00,,CLR,0.01,VWS V14.01,2013-04-06 20:40:00,
2013-04-06 15:46:00,59.3,48.8,29.53,SW,221,7.0,10.0,68,0.00,,CLR,0.01,VWS V14.01,2013-04-06 20:46:00,
2013-04-06 15:51:00,59.3,48.8,29.53,SW,215,7.0,10.0,68,0.00,,CLR,0.01,VWS V14.01,2013-04-06 20:51:00,
2013-04-06 15:56:00,59.1,49.0,29.53,SW,218,5.0,10.0,69,0.00,,CLR,0.01,VWS V14.01,2013-04-06 20:56:00,
2013-04-06 16:01:00,59.0,49.6,29.53,SW,214,4.0,10.0,71,0.00,,CLR,0.01,VWS V14.01,2013-04-06 21:01:00,
2013-04-06 16:06:00,59.0,50.0,29.53,SW,222,4.0,4.0,72,0.00,,CLR,0.01,VWS V14.01,2013-04-06 21:06:00,
2013-04-06 16:11:00,59.0,50.0,29.53,SW,222,3.0,6.0,72,0.00,,CLR,0.01,VWS V14.01,2013-04-06 21:11:00,
2013-04-06 16:16:00,58.9,49.9,29.53,SW,222,2.0,6.0,72,0.00,,CLR,0.01,VWS V14.01,2013-04-06 21:16:00,
2013-04-06 16:21:00,58.7,49.7,29.53,SW,222,3.0,6.0,72,0.00,,CLR,0.01,VWS V14.01,2013-04-06 21:21:00,
2013-04-06 16:26:00,58.4,49.8,29.51,SW,222,1.0,6.0,73,0.00,,CLR,0.01,VWS V14.01,2013-04-06 21:26:00,
2013-04-06 16:31:00,57.1,50.3,29.51,South,181,1.0,6.0,78,0.00,,CLR,0.01,VWS V14.01,2013-04-06 21:31:00,
2013-04-06 16:37:00,58.1,51.6,29.52,South,182,0.0,6.0,79,0.00,,CLR,0.01,VWS V14.01,2013-04-06 21:37:00,
2013-04-06 16:42:00,59.1,51.9,29.52,SSW,209,4.0,6.0,77,0.00,,CLR,0.01,VWS V14.01,2013-04-06 21:42:00,
2013-04-06 16:47:00,59.6,51.0,29.52,SSW,206,3.0,6.0,73,0.00,,CLR,0.01,VWS V14.01,2013-04-06 21:47:00,
2013-04-06 16:52:00,59.8,50.8,29.52,SSW,206,2.0,6.0,72,0.00,,CLR,0.01,VWS V14.01,2013-04-06 21:52:00,
2013-04-06 16:57:00,59.9,50.9,29.52,SSW,206,3.0,6.0,72,0.00,,CLR,0.01,VWS V14.01,2013-04-06 21:57:00,
2013-04-06 17:02:00,60.0,51.0,29.52,SSW,206,2.0,6.0,72,0.00,,CLR,0.01,VWS V14.01,2013-04-06 22:02:00,
2013-04-06 17:07:00,59.9,50.9,29.52,SSW,206,3.0,3.0,72,0.00,,CLR,0.01,VWS V14.01,2013-04-06 22:07:00,
2013-04-06 17:12:00,59.9,50.9,29.53,SSW,206,2.0,4.0,72,0.00,,CLR,0.01,VWS V14.01,2013-04-06 22:12:00,
2013-04-06 17:17:00,59.9,50.9,29.53,SW,233,3.0,4.0,72,0.00,,CLR,0.01,VWS V14.01,2013-04-06 22:17:00,
2013-04-06 17:22:00,59.7,51.4,29.54,WNW,302,9.0,13.0,74,0.00,,CLR,0.01,VWS V14.01,2013-04-06 22:22:00,
2013-04-06 17:27:00,58.5,51.7,29.54,WNW,300,10.0,13.0,78,0.00,,CLR,0.01,VWS V14.01,2013-04-06 22:27:00,
2013-04-06 17:32:00,57.3,51.5,29.55,WNW,292,9.0,13.0,81,0.00,,CLR,0.01,VWS V14.01,2013-04-06 22:32:00,
2013-04-06 17:37:00,56.5,51.4,29.55,WNW,284,7.0,13.0,83,0.00,,CLR,0.01,VWS V14.01,2013-04-06 22:37:00,
2013-04-06 17:42:00,56.2,51.4,29.56,WNW,284,6.0,13.0,84,0.00,,CLR,0.01,VWS V14.01,2013-04-06 22:42:00,
2013-04-06 17:47:00,56.0,51.6,29.56,West,275,9.0,13.0,85,0.00,,CLR,0.01,VWS V14.01,2013-04-06 22:47:00,
2013-04-06 17:52:00,55.8,51.4,29.56,NNW,330,10.0,15.0,85,0.00,,CLR,0.01,VWS V14.01,2013-04-06 22:52:00,
2013-04-06 17:57:00,55.1,50.4,29.56,NW,322,13.0,16.0,84,0.00,,CLR,0.01,VWS V14.01,2013-04-06 22:57:00,
2013-04-06 18:02:00,54.1,49.1,29.57,WNW,288,10.0,16.0,83,0.00,,CLR,0.01,VWS V14.01,2013-04-06 23:02:00,
2013-04-06 18:07:00,53.2,48.2,29.57,WNW,294,6.0,15.0,83,0.00,,CLR,0.01,VWS V14.01,2013-04-06 23:07:00,
2013-04-06 18:13:00,52.6,47.9,29.57,NW,304,8.0,15.0,84,0.00,,CLR,0.01,VWS V14.01,2013-04-06 23:13:00,
2013-04-06 18:18:00,52.2,47.8,29.57,WNW,302,6.0,15.0,85,0.00,,CLR,0.01,VWS V14.01,2013-04-06 23:18:00,
2013-04-06 18:23:00,51.9,47.8,29.57,WNW,288,5.0,15.0,86,0.00,,CLR,0.01,VWS V14.01,2013-04-06 23:23:00,
2013-04-06 18:28:00,51.7,47.7,29.57,WNW,282,7.0,15.0,86,0.00,,CLR,0.01,VWS V14.01,2013-04-06 23:28:00,
2013-04-06 18:33:00,51.5,47.5,29.58,WNW,292,9.0,15.0,86,0.00,,CLR,0.01,VWS V14.01,2013-04-06 23:33:00,
2013-04-06 18:38:00,51.3,47.0,29.58,West,281,8.0,15.0,85,0.00,,CLR,0.01,VWS V14.01,2013-04-06 23:38:00,
2013-04-06 18:43:00,51.0,46.7,29.58,WNW,300,8.0,15.0,85,0.00,,CLR,0.01,VWS V14.01,2013-04-06 23:43:00,
2013-04-06 18:48:00,50.7,46.4,29.59,West,275,6.0,15.0,85,0.00,,CLR,0.01,VWS V14.01,2013-04-06 23:48:00,
2013-04-06 18:53:00,50.5,46.2,29.59,WNW,286,11.0,15.0,85,0.00,,CLR,0.01,VWS V14.01,2013-04-06 23:53:00,
2013-04-06 18:58:00,50.2,45.9,29.59,WNW,286,5.0,15.0,85,0.00,,CLR,0.01,VWS V14.01,2013-04-06 23:58:00,
2013-04-06 19:03:00,50.0,46.0,29.59,West,275,7.0,15.0,86,0.00,,CLR,0.01,VWS V14.01,2013-04-07 00:03:00,
2013-04-06 19:08:00,49.8,45.8,29.60,WNW,295,5.0,10.0,86,0.00,,CLR,0.01,VWS V14.01,2013-04-07 00:08:00,
2013-04-06 19:13:00,49.7,45.7,29.60,NW,308,4.0,10.0,86,0.00,,CLR,0.01,VWS V14.01,2013-04-07 00:13:00,
2013-04-06 19:18:00,49.5,45.5,29.60,West,278,7.0,11.0,86,0.00,,CLR,0.01,VWS V14.01,2013-04-07 00:18:00,
2013-04-06 19:23:00,49.4,45.7,29.60,NW,317,7.0,11.0,87,0.00,,CLR,0.01,VWS V14.01,2013-04-07 00:23:00,
2013-04-06 19:28:00,49.4,45.7,29.60,WNW,301,5.0,13.0,87,0.00,,CLR,0.01,VWS V14.01,2013-04-07 00:28:00,
2013-04-06 19:33:00,49.4,45.7,29.60,WNW,283,7.0,13.0,87,0.00,,CLR,0.01,VWS V14.01,2013-04-07 00:33:00,
2013-04-06 19:39:00,49.3,45.9,29.60,NW,311,4.0,13.0,88,0.00,,CLR,0.01,VWS V14.01,2013-04-07 00:39:00,
2013-04-06 19:44:00,49.3,45.9,29.61,WNW,284,5.0,13.0,88,0.00,,CLR,0.01,VWS V14.01,2013-04-07 00:44:00,
2013-04-06 19:49:00,49.4,46.0,29.61,West,276,9.0,13.0,88,0.00,,CLR,0.01,VWS V14.01,2013-04-07 00:49:00,
2013-04-06 19:54:00,49.4,46.0,29.61,WNW,291,6.0,16.0,88,0.00,,CLR,0.01,VWS V14.01,2013-04-07 00:54:00,
2013-04-06 19:59:00,49.5,46.1,29.61,NW,310,12.0,16.0,88,0.00,,CLR,0.01,VWS V14.01,2013-04-07 00:59:00,
2013-04-06 20:04:00,49.6,46.2,29.62,West,281,8.0,12.0,88,0.00,,CLR,0.01,VWS V14.01,2013-04-07 01:04:00,
2013-04-06 20:10:00,49.6,46.2,29.63,WNW,285,7.0,16.0,88,0.00,,CLR,0.01,VWS V14.01,2013-04-07 01:10:00,
2013-04-06 20:15:00,49.6,45.9,29.63,NW,310,16.0,23.0,87,0.00,,CLR,0.01,VWS V14.01,2013-04-07 01:15:00,
2013-04-06 20:20:00,49.5,45.5,29.64,WNW,302,9.0,23.0,86,0.00,,CLR,0.01,VWS V14.01,2013-04-07 01:20:00,
2013-04-06 20:25:00,49.3,45.3,29.64,WNW,300,15.0,23.0,86,0.00,,CLR,0.01,VWS V14.01,2013-04-07 01:25:00,
2013-04-06 20:30:00,49.0,44.7,29.64,WNW,292,12.0,23.0,85,0.00,,CLR,0.01,VWS V14.01,2013-04-07 01:30:00,
2013-04-06 20:35:00,48.8,44.5,29.65,NW,313,20.0,23.0,85,0.00,,CLR,0.01,VWS V14.01,2013-04-07 01:35:00,
2013-04-06 20:40:00,48.7,44.4,29.65,WNW,300,14.0,23.0,85,0.00,,CLR,0.01,VWS V14.01,2013-04-07 01:40:00,
2013-04-06 20:45:00,48.6,44.3,29.65,NW,317,16.0,23.0,85,0.00,,CLR,0.01,VWS V14.01,2013-04-07 01:45:00,
2013-04-06 20:50:00,48.4,44.1,29.66,WNW,302,10.0,23.0,85,0.00,,CLR,0.01,VWS V14.01,2013-04-07 01:50:00,
2013-04-06 20:55:00,48.2,43.9,29.66,NW,309,12.0,23.0,85,0.00,,CLR,0.01,VWS V14.01,2013-04-07 01:55:00,
2013-04-06 21:00:00,48.2,43.9,29.66,NW,323,15.0,23.0,85,0.00,,CLR,0.01,VWS V14.01,2013-04-07 02:00:00,
2013-04-06 21:05:00,48.1,43.8,29.67,NW,319,10.0,19.0,85,0.00,,CLR,0.01,VWS V14.01,2013-04-07 02:05:00,
2013-04-06 21:10:00,48.0,43.7,29.67,NW,309,15.0,20.0,85,0.00,,CLR,0.01,VWS V14.01,2013-04-07 02:10:00,
2013-04-06 21:15:00,48.1,43.5,29.68,NW,306,17.0,20.0,84,0.00,,CLR,0.01,VWS V14.01,2013-04-07 02:15:00,
2013-04-06 21:20:00,48.0,43.4,29.68,NW,312,11.0,20.0,84,0.00,,CLR,0.01,VWS V14.01,2013-04-07 02:20:00,
2013-04-06 21:25:00,48.0,43.1,29.68,WNW,283,10.0,22.0,83,0.00,,CLR,0.01,VWS V14.01,2013-04-07 02:25:00,
2013-04-06 21:31:00,47.8,42.9,29.68,NW,315,15.0,22.0,83,0.00,,CLR,0.01,VWS V14.01,2013-04-07 02:31:00,
2013-04-06 21:36:00,47.7,42.8,29.68,NW,307,15.0,22.0,83,0.00,,CLR,0.01,VWS V14.01,2013-04-07 02:36:00,
2013-04-06 21:41:00,47.6,42.7,29.69,NW,316,9.0,22.0,83,0.00,,CLR,0.01,VWS V14.01,2013-04-07 02:41:00,
2013-04-06 21:46:00,47.5,42.9,29.69,NW,321,12.0,22.0,84,0.00,,CLR,0.01,VWS V14.01,2013-04-07 02:46:00,
2013-04-06 21:51:00,47.4,42.8,29.69,WNW,298,7.0,22.0,84,0.00,,CLR,0.01,VWS V14.01,2013-04-07 02:51:00,
2013-04-06 21:56:00,47.3,42.7,29.69,NW,313,11.0,22.0,84,0.00,,CLR,0.01,VWS V14.01,2013-04-07 02:56:00,
2013-04-06 22:01:00,47.2,42.6,29.70,WNW,302,12.0,22.0,84,0.00,,CLR,0.01,VWS V14.01,2013-04-07 03:01:00,
2013-04-06 22:06:00,47.1,42.5,29.70,NW,320,12.0,19.0,84,0.00,,CLR,0.01,VWS V14.01,2013-04-07 03:06:00,
2013-04-06 22:12:00,46.8,42.2,29.70,NW,325,14.0,19.0,84,0.00,,CLR,0.01,VWS V14.01,2013-04-07 03:12:00,
2013-04-06 22:17:00,46.5,41.9,29.70,NW,306,18.0,19.0,84,0.00,,CLR,0.01,VWS V14.01,2013-04-07 03:17:00,
2013-04-06 22:22:00,46.3,41.4,29.70,NW,320,10.0,22.0,83,0.00,,CLR,0.01,VWS V14.01,2013-04-07 03:22:00,
2013-04-06 22:27:00,46.1,41.2,29.71,WNW,297,15.0,22.0,83,0.00,,CLR,0.01,VWS V14.01,2013-04-07 03:27:00,
2013-04-06 22:32:00,46.0,41.1,29.71,NW,320,18.0,23.0,83,0.00,,CLR,0.01,VWS V14.01,2013-04-07 03:32:00,
2013-04-06 22:37:00,46.0,41.4,29.72,NNW,332,15.0,23.0,84,0.00,,CLR,0.01,VWS V14.01,2013-04-07 03:37:00,
2013-04-06 22:42:00,45.9,41.3,29.72,NW,305,17.0,24.0,84,0.00,,CLR,0.01,VWS V14.01,2013-04-07 03:42:00,
2013-04-06 22:47:00,45.8,41.2,29.72,NW,324,11.0,24.0,84,0.00,,CLR,0.01,VWS V14.01,2013-04-07 03:47:00,
2013-04-06 22:52:00,45.8,41.2,29.73,WNW,300,14.0,24.0,84,0.00,,CLR,0.01,VWS V14.01,2013-04-07 03:52:00,
2013-04-06 22:57:00,45.7,41.2,29.73,NW,306,11.0,24.0,84,0.00,,CLR,0.01,VWS V14.01,2013-04-07 03:57:00,
2013-04-06 23:00:00,45.6,41.0,29.73,NW,304,10.0,24.0,84,0.00,,CLR,0.01,VWS V14.01,2013-04-07 04:00:00,
2013-04-06 23:01:00,45.6,41.0,29.73,NW,321,11.0,24.0,84,0.00,,CLR,0.01,VWS V14.01,2013-04-07 04:01:00,
2013-04-06 23:06:00,45.6,41.4,29.73,NNW,332,16.0,16.0,85,0.00,,CLR,0.01,VWS V14.01,2013-04-07 04:06:00,
2013-04-06 23:12:00,45.5,41.3,29.73,NW,314,9.0,17.0,85,0.00,,CLR,0.01,VWS V14.01,2013-04-07 04:12:00,
2013-04-06 23:17:00,45.4,41.5,29.73,NW,325,8.0,17.0,86,0.00,,CLR,0.01,VWS V14.01,2013-04-07 04:17:00,
2013-04-06 23:22:00,45.2,41.3,29.72,NW,312,7.0,17.0,86,0.00,,CLR,0.01,VWS V14.01,2013-04-07 04:22:00,
2013-04-06 23:27:00,45.1,41.2,29.72,NW,319,12.0,17.0,86,0.00,,CLR,0.01,VWS V14.01,2013-04-07 04:27:00,
2013-04-06 23:32:00,44.9,41.0,29.73,NW,304,14.0,17.0,86,0.00,,CLR,0.01,VWS V14.01,2013-04-07 04:32:00,
2013-04-06 23:37:00,44.8,40.9,29.73,NW,325,12.0,17.0,86,0.00,,CLR,0.01,VWS V14.01,2013-04-07 04:37:00,
2013-04-06 23:42:00,44.7,40.8,29.73,WNW,298,8.0,17.0,86,0.00,,CLR,0.01,VWS V14.01,2013-04-07 04:42:00,
2013-04-06 23:47:00,44.6,40.7,29.73,NW,319,8.0,17.0,86,0.00,,CLR,0.01,VWS V14.01,2013-04-07 04:47:00,
2013-04-06 23:52:00,44.5,40.6,29.73,NNW,329,9.0,17.0,86,0.00,,CLR,0.01,VWS V14.01,2013-04-07 04:52:00,
2013-04-06 23:57:00,44.4,40.5,29.73,NW,313,11.0,17.0,86,0.00,,CLR,0.01,VWS V14.01,2013-04-07 04:57:00,